< < Back
Terminal Aerodrome Forecast


Current Version              Previous Versions:   1  2  3  4  5  6  7  8  9  

Terminal Aerodrome Forecast

319
FTUS44 KBMX 301728
TAFTCL
TAF
KTCL 301728Z 3018/3118 09010KT P6SM SCT050
     FM310200 08003KT P6SM SKC=

Latest METAR

428
SAUS70 KWBC 310600 RRJ
MTRTCL
METAR KTCL 310553Z AUTO 00000KT 10SM FEW070 24/22 A2997 RMK AO2 SLP147
T02440222 10317 20239 403500222 53006


USA.gov is the U.S. government's official web portal to all federal, state and local government web resources and services.